Time;durP1;ratioP1;P1;durP2;ratioP2;P2;SDS_P1;SDS_P2;PMS_P1;PMS_P2;Temp;Humidity;BMP_temperature;BMP_pressure;BME280_temperature;BME280_humidity;BME280_pressure;Samples;Min_cycle;Max_cycle;Signal;HPM_P1;HPM_P2
2023/08/26 00:02:16;;;;;;;9.27;7.13;;;;;;;21.57;100.00;96035.47;4959216;28;103814;-80
2023/08/26 00:04:42;;;;;;;8.93;6.73;;;;;;;21.67;100.00;96016.94;4981490;28;101978;-80
2023/08/26 00:07:09;;;;;;;8.10;7.13;;;;;;;21.91;100.00;96008.19;4989460;28;105523;-80
2023/08/26 00:09:36;;;;;;;10.57;6.90;;;;;;;21.56;100.00;96001.41;4993951;28;103085;-80
2023/08/26 00:12:03;;;;;;;7.50;6.70;;;;;;;21.33;100.00;95990.09;4972798;28;105506;-80
2023/08/26 00:14:31;;;;;;;8.77;6.97;;;;;;;21.15;100.00;95979.72;4990712;28;103136;-80
2023/08/26 00:16:58;;;;;;;8.63;6.60;;;;;;;21.10;100.00;95974.47;4973324;28;101891;-80
2023/08/26 00:19:26;;;;;;;7.27;6.63;;;;;;;21.07;100.00;95970.53;4973291;28;105334;-80
2023/08/26 00:21:53;;;;;;;8.03;7.00;;;;;;;21.07;100.00;95967.00;4987600;28;102952;-79
2023/08/26 00:24:20;;;;;;;7.50;6.80;;;;;;;21.03;100.00;95963.41;4953607;28;101968;-79
2023/08/26 00:26:47;;;;;;;7.77;6.97;;;;;;;20.87;100.00;95957.69;4953370;28;105182;-79
2023/08/26 00:29:13;;;;;;;8.90;7.17;;;;;;;20.86;100.00;95955.31;4952863;28;105377;-79
2023/08/26 00:31:40;;;;;;;8.07;7.37;;;;;;;20.92;100.00;95948.66;4957579;28;102298;-80
2023/08/26 00:34:07;;;;;;;8.87;7.13;;;;;;;21.16;100.00;95941.53;4966417;28;105695;-78
2023/08/26 00:36:36;;;;;;;8.73;7.93;;;;;;;21.21;100.00;95935.13;4953563;28;102014;-78
2023/08/26 00:39:03;;;;;;;8.20;7.40;;;;;;;21.20;100.00;95928.13;4953371;28;104877;-78
2023/08/26 00:41:30;;;;;;;7.93;7.23;;;;;;;21.10;100.00;95928.50;4952677;28;105324;-78
2023/08/26 00:43:57;;;;;;;7.80;7.10;;;;;;;21.04;100.00;95933.31;4967648;28;102025;-78
2023/08/26 00:46:25;;;;;;;7.07;6.43;;;;;;;21.33;100.00;95940.63;4960265;28;105381;-78
2023/08/26 00:48:51;;;;;;;9.97;6.17;;;;;;;21.35;100.00;95933.75;4971939;28;105207;-78
2023/08/26 00:51:20;;;;;;;7.47;6.87;;;;;;;21.28;100.00;95913.75;4989231;28;101906;-78
2023/08/26 00:53:49;;;;;;;6.90;6.33;;;;;;;21.25;100.00;95927.94;4958287;28;105417;-79
2023/08/26 00:56:17;;;;;;;7.03;6.43;;;;;;;21.20;100.00;95936.25;4953125;28;102038;-79
2023/08/26 00:58:44;;;;;;;8.00;7.30;;;;;;;21.10;100.00;95929.28;4953091;28;105404;-79
2023/08/26 01:01:12;;;;;;;7.47;6.77;;;;;;;21.00;100.00;95924.28;4953592;28;105085;-78
2023/08/26 01:03:39;;;;;;;7.37;6.70;;;;;;;20.82;100.00;95928.16;4965719;28;102350;-77
2023/08/26 01:06:06;;;;;;;7.00;6.40;;;;;;;20.77;100.00;95922.16;4970859;28;102790;-77
2023/08/26 01:08:34;;;;;;;8.07;6.90;;;;;;;20.61;100.00;95929.22;4970082;28;104269;-77
2023/08/26 01:11:08;;;;;;;7.63;6.77;;;;;;;20.35;100.00;95923.91;4988536;28;102018;-78
2023/08/26 01:13:50;;;;;;;7.70;6.90;;;;;;;20.27;100.00;95934.75;4972745;28;105273;-77
2023/08/26 01:16:18;;;;;;;8.50;7.70;;;;;;;20.25;100.00;95926.16;4991916;28;105424;-76
2023/08/26 01:18:45;;;;;;;9.07;7.17;;;;;;;20.35;100.00;95923.91;4972274;28;105165;-76
2023/08/26 01:21:14;;;;;;;7.10;6.40;;;;;;;20.49;100.00;95921.00;4989254;28;102774;-76
2023/08/26 01:23:45;;;;;;;7.57;6.87;;;;;;;20.51;100.00;95922.28;4972485;28;102074;-76
2023/08/26 01:26:12;;;;;;;8.20;7.40;;;;;;;20.42;100.00;95910.69;4980175;28;104925;-76
2023/08/26 01:28:39;;;;;;;7.20;6.53;;;;;;;20.38;100.00;95914.38;4968432;28;105502;-76
2023/08/26 01:31:10;;;;;;;7.90;7.20;;;;;;;20.33;100.00;95915.31;4952837;28;101960;-76
2023/08/26 01:33:43;;;;;;;10.57;7.80;;;;;;;20.29;100.00;95906.31;4955931;28;104843;-76
2023/08/26 01:36:14;;;;;;;9.17;7.83;;;;;;;20.30;100.00;95905.19;4955531;28;105519;-76
2023/08/26 01:38:43;;;;;;;8.03;7.33;;;;;;;20.43;100.00;95900.69;4959323;28;105355;-76
2023/08/26 01:41:12;;;;;;;8.00;7.10;;;;;;;20.46;100.00;95908.94;4971568;28;105279;-76
2023/08/26 01:43:40;;;;;;;8.27;6.90;;;;;;;20.44;100.00;95894.19;4972282;28;101953;-76
2023/08/26 01:46:07;;;;;;;8.73;7.97;;;;;;;20.24;100.00;95897.56;4971568;28;104940;-76
2023/08/26 01:48:34;;;;;;;9.30;7.50;;;;;;;20.08;100.00;95904.59;4971088;28;105915;-78
2023/08/26 01:51:01;;;;;;;9.80;7.80;;;;;;;20.10;100.00;95905.09;4972273;28;101856;-81
2023/08/26 01:53:28;;;;;;;8.40;7.70;;;;;;;20.03;100.00;95907.44;4972339;28;105450;-81
2023/08/26 01:55:56;;;;;;;9.33;8.30;;;;;;;20.06;100.00;95914.91;4974564;28;105504;-81
2023/08/26 01:58:23;;;;;;;8.27;7.53;;;;;;;20.13;100.00;95915.25;4995325;28;102137;-81
2023/08/26 02:00:50;;;;;;;8.10;7.40;;;;;;;20.12;100.00;95914.44;4991287;28;105614;-81
2023/08/26 02:03:17;;;;;;;12.20;8.33;;;;;;;19.93;100.00;95913.97;4975545;28;102030;-81
2023/08/26 02:05:44;;;;;;;9.57;7.80;;;;;;;19.69;100.00;95919.09;4974988;28;104851;-80
2023/08/26 02:08:11;;;;;;;9.47;8.53;;;;;;;19.53;100.00;95927.97;4974624;28;105179;-77
2023/08/26 02:10:38;;;;;;;9.83;8.93;;;;;;;19.49;100.00;95927.81;4975141;28;101999;-77
2023/08/26 02:13:06;;;;;;;10.00;9.00;;;;;;;19.53;100.00;95946.84;4975317;28;104066;-77
2023/08/26 02:15:34;;;;;;;11.30;10.20;;;;;;;19.50;100.00;95952.91;4990600;28;105689;-77
2023/08/26 02:18:01;;;;;;;11.70;10.50;;;;;;;19.43;100.00;95958.75;4992125;28;101849;-77
2023/08/26 02:20:28;;;;;;;12.17;10.57;;;;;;;19.39;100.00;95954.28;4993244;28;105987;-78
2023/08/26 02:22:56;;;;;;;11.63;10.43;;;;;;;19.36;100.00;95963.84;4973790;28;102303;-78
2023/08/26 02:25:23;;;;;;;13.97;10.90;;;;;;;19.34;100.00;95962.56;4973496;28;104815;-78
2023/08/26 02:27:50;;;;;;;14.13;11.83;;;;;;;19.38;100.00;95964.31;4989988;28;105644;-78
2023/08/26 02:30:19;;;;;;;12.93;11.70;;;;;;;19.41;100.00;95968.28;4990662;28;101906;-78
2023/08/26 02:32:46;;;;;;;13.77;12.30;;;;;;;19.34;100.00;95974.13;4973858;28;104306;-78
2023/08/26 02:35:12;;;;;;;12.33;11.20;;;;;;;19.31;100.00;95979.34;4972939;28;104099;-78
2023/08/26 02:37:39;;;;;;;12.17;11.07;;;;;;;19.33;100.00;95979.81;4973758;28;102065;-77
2023/08/26 02:40:07;;;;;;;12.30;11.03;;;;;;;19.39;100.00;95975.88;4973354;28;105118;-77
2023/08/26 02:42:34;;;;;;;12.57;11.37;;;;;;;19.46;100.00;95978.91;4994583;28;102904;-78
2023/08/26 02:45:01;;;;;;;11.97;10.87;;;;;;;19.43;100.00;95991.13;4973483;28;104877;-78
2023/08/26 02:47:30;;;;;;;11.67;10.57;;;;;;;19.50;100.00;95994.13;4973194;28;105879;-78
2023/08/26 02:49:59;;;;;;;11.77;10.57;;;;;;;19.42;100.00;96003.03;4972828;28;102079;-78
2023/08/26 02:52:25;;;;;;;11.67;10.57;;;;;;;19.40;100.00;96007.16;4991583;28;103131;-77
2023/08/26 02:54:52;;;;;;;11.23;10.13;;;;;;;19.48;100.00;96006.34;4972899;28;104727;-77
2023/08/26 02:57:20;;;;;;;10.37;9.47;;;;;;;19.52;100.00;96000.00;4989781;28;101918;-77
2023/08/26 02:59:46;;;;;;;9.77;8.77;;;;;;;19.88;100.00;95999.69;4965739;28;105794;-77
2023/08/26 03:02:13;;;;;;;9.63;8.73;;;;;;;20.19;100.00;96021.94;4954152;28;105407;-77
2023/08/26 03:04:44;;;;;;;9.67;8.77;;;;;;;19.79;100.00;96017.81;4958359;28;102057;-78
2023/08/26 03:07:11;;;;;;;9.73;8.73;;;;;;;19.66;100.00;96024.94;4969984;28;105346;-78
2023/08/26 03:09:38;;;;;;;8.93;8.13;;;;;;;19.73;100.00;96040.66;4974265;28;102009;-78
2023/08/26 03:12:05;;;;;;;8.93;8.10;;;;;;;19.58;100.00;96046.50;4974124;28;105266;-78
2023/08/26 03:14:32;;;;;;;9.07;8.07;;;;;;;19.58;100.00;96060.00;4990079;28;105140;-79
2023/08/26 03:16:59;;;;;;;9.43;8.53;;;;;;;19.50;100.00;96087.75;4959663;28;102145;-79
2023/08/26 03:19:27;;;;;;;9.57;8.67;;;;;;;19.36;100.00;96101.38;4959843;28;105040;-76
2023/08/26 03:21:55;;;;;;;11.07;9.73;;;;;;;19.44;100.00;96122.16;4973652;28;104688;-76
2023/08/26 03:24:22;;;;;;;11.07;9.93;;;;;;;19.40;100.00;96140.06;4972997;28;101908;-76
2023/08/26 03:26:50;;;;;;;11.33;10.33;;;;;;;19.48;100.00;96168.19;4957277;28;105666;-76
2023/08/26 03:29:17;;;;;;;11.13;10.10;;;;;;;19.48;100.00;96168.97;4953387;28;102354;-76
2023/08/26 03:31:44;;;;;;;10.30;9.30;;;;;;;19.47;100.00;96166.59;4953624;28;105139;-76
2023/08/26 03:34:14;;;;;;;10.40;9.40;;;;;;;19.58;100.00;96157.09;4953796;28;105512;-76
2023/08/26 03:36:41;;;;;;;11.20;9.50;;;;;;;19.77;100.00;96154.94;4973661;28;102045;-76
2023/08/26 03:39:09;;;;;;;10.67;9.57;;;;;;;19.84;100.00;96163.38;4972572;28;105513;-76
2023/08/26 03:41:36;;;;;;;10.27;9.20;;;;;;;19.87;100.00;96181.63;4953431;28;104985;-83
2023/08/26 03:44:04;;;;;;;8.63;7.73;;;;;;;19.92;100.00;96189.59;4970537;28;101986;-84
2023/08/26 03:46:32;;;;;;;9.13;8.23;;;;;;;19.91;100.00;96221.19;4976365;28;104889;-84
2023/08/26 03:48:59;;;;;;;8.67;7.00;;;;;;;19.89;100.00;96231.50;4989873;28;102059;-84
2023/08/26 03:51:26;;;;;;;8.13;7.07;;;;;;;20.03;100.00;96234.06;4973716;28;103857;-84
2023/08/26 03:53:53;;;;;;;6.73;6.13;;;;;;;20.02;100.00;96240.59;4972140;28;105158;-84
2023/08/26 03:56:22;;;;;;;6.07;5.57;;;;;;;20.16;100.00;96242.09;4973111;28;101860;-78
2023/08/26 03:58:52;;;;;;;5.43;4.93;;;;;;;20.24;100.00;96241.31;4970220;28;105163;-77
2023/08/26 04:01:18;;;;;;;4.30;3.90;;;;;;;20.41;100.00;96213.53;4969513;28;105298;-76
2023/08/26 04:03:46;;;;;;;3.97;3.63;;;;;;;20.23;100.00;96218.13;4960041;28;101914;-79
2023/08/26 04:06:15;;;;;;;4.93;2.97;;;;;;;19.62;100.00;96225.53;4956198;28;105519;-79
2023/08/26 04:08:43;;;;;;;3.33;3.00;;;;;;;19.29;100.00;96210.78;4972431;28;105801;-79
2023/08/26 04:11:10;;;;;;;2.70;2.50;;;;;;;19.15;100.00;96202.72;4969879;28;105238;-79
2023/08/26 04:13:39;;;;;;;2.90;2.70;;;;;;;19.08;100.00;96212.34;4969597;28;105600;-83
2023/08/26 04:16:07;;;;;;;3.00;2.50;;;;;;;19.10;100.00;96188.56;4953777;28;102231;-82
2023/08/26 04:18:33;;;;;;;3.63;2.77;;;;;;;19.07;100.00;96181.13;4970030;28;105015;-81
2023/08/26 04:21:01;;;;;;;4.47;2.53;;;;;;;19.13;100.00;96177.97;4985026;28;105413;-81
2023/08/26 04:23:30;;;;;;;2.90;2.70;;;;;;;19.14;100.00;96189.56;4953590;28;101913;-81
2023/08/26 04:25:59;;;;;;;3.27;2.90;;;;;;;19.16;100.00;96208.91;4962233;28;105402;-82
2023/08/26 04:28:26;;;;;;;3.10;2.80;;;;;;;19.05;100.00;96202.19;4972137;28;105053;-85
2023/08/26 04:30:55;;;;;;;4.30;3.00;;;;;;;18.99;100.00;96208.78;4976286;28;101970;-81
2023/08/26 04:33:22;;;;;;;5.67;3.50;;;;;;;18.81;100.00;96250.97;4990289;28;103006;-75
2023/08/26 04:35:49;;;;;;;4.00;3.43;;;;;;;18.88;100.00;96207.47;4968203;28;101900;-74
2023/08/26 04:38:16;;;;;;;4.20;3.60;;;;;;;18.80;100.00;96202.81;4953464;28;105819;-79
2023/08/26 04:40:43;;;;;;;3.30;3.10;;;;;;;18.76;100.00;96215.31;4952950;28;105435;-79
2023/08/26 04:43:11;;;;;;;3.83;3.50;;;;;;;18.81;100.00;96234.03;4953383;28;102004;-79
2023/08/26 04:45:39;;;;;;;4.57;3.60;;;;;;;18.81;100.00;96242.91;4953691;28;104171;-78
2023/08/26 04:48:09;;;;;;;5.83;3.90;;;;;;;18.74;100.00;96244.44;4972443;28;104602;-78
2023/08/26 04:50:36;;;;;;;4.40;3.83;;;;;;;18.79;100.00;96252.38;4962046;28;102030;-82
2023/08/26 04:53:04;;;;;;;5.77;4.07;;;;;;;18.77;100.00;96238.44;4956251;28;105467;-80
2023/08/26 04:55:32;;;;;;;5.80;3.83;;;;;;;18.84;100.00;96217.25;4957079;28;102144;-80
2023/08/26 04:57:59;;;;;;;3.87;3.40;;;;;;;18.84;100.00;96201.09;4953139;28;104901;-78
2023/08/26 05:00:26;;;;;;;4.23;3.70;;;;;;;18.89;100.00;96219.81;4952420;28;105176;-76
2023/08/26 05:02:53;;;;;;;4.67;3.57;;;;;;;18.81;100.00;96236.75;4953252;28;102258;-79
2023/08/26 05:05:22;;;;;;;3.90;3.30;;;;;;;18.69;100.00;96225.72;4952976;28;105310;-81
2023/08/26 05:07:49;;;;;;;4.13;3.70;;;;;;;18.57;100.00;96215.47;4952250;28;105817;-82
2023/08/26 05:10:16;;;;;;;4.40;4.00;;;;;;;18.60;100.00;96200.59;4952872;28;101930;-84
2023/08/26 05:12:43;;;;;;;4.00;3.63;;;;;;;18.58;100.00;96194.72;4953088;28;105178;-85
2023/08/26 05:15:12;;;;;;;5.10;3.57;;;;;;;18.55;100.00;96184.56;4957392;28;105480;-93
2023/08/26 05:17:39;;;;;;;6.90;4.17;;;;;;;18.77;100.00;96141.44;4972953;28;105979;-93
2023/08/26 05:20:07;;;;;;;3.90;3.50;;;;;;;18.80;100.00;96138.16;4972261;28;105857;-92
2023/08/26 05:22:35;;;;;;;5.67;4.30;;;;;;;19.12;100.00;96154.03;4972940;28;101992;-92
2023/08/26 05:25:02;;;;;;;4.27;3.50;;;;;;;19.12;100.00;96148.66;4973023;28;104893;-92
2023/08/26 05:27:29;;;;;;;6.27;4.00;;;;;;;19.30;100.00;96148.41;4972253;28;105007;-92
2023/08/26 05:29:56;;;;;;;4.23;3.23;;;;;;;19.27;100.00;96130.19;4992008;28;101944;-91
2023/08/26 05:32:25;;;;;;;3.73;3.43;;;;;;;19.43;100.00;96112.47;4976035;28;105325;-91
2023/08/26 05:34:52;;;;;;;4.93;3.57;;;;;;;19.58;100.00;96108.56;4975651;28;105215;-91
2023/08/26 05:37:19;;;;;;;4.87;3.30;;;;;;;19.47;100.00;96113.44;4996139;28;101897;-90
2023/08/26 05:39:47;;;;;;;2.93;2.33;;;;;;;19.19;100.00;96105.84;4975304;28;105435;-91
2023/08/26 05:42:14;;;;;;;3.10;2.90;;;;;;;19.38;100.00;96117.22;4992341;28;102027;-90
2023/08/26 05:44:41;;;;;;;2.73;2.53;;;;;;;19.52;100.00;96123.28;4992520;28;105071;-90
2023/08/26 05:47:08;;;;;;;2.40;2.20;;;;;;;19.54;100.00;96126.47;4991782;28;105237;-90
2023/08/26 05:49:35;;;;;;;2.00;1.90;;;;;;;19.25;100.00;96131.59;4973346;28;101963;-90
2023/08/26 05:52:03;;;;;;;2.60;2.40;;;;;;;19.37;100.00;96131.81;4974316;28;105080;-89
2023/08/26 05:54:31;;;;;;;2.90;2.70;;;;;;;19.94;100.00;96138.81;4975387;28;105094;-90
2023/08/26 05:56:59;;;;;;;3.93;3.53;;;;;;;20.44;100.00;96131.88;4978849;28;103571;-90
2023/08/26 05:59:29;;;;;;;4.67;3.60;;;;;;;20.62;100.00;96122.63;4991869;28;105875;-90
2023/08/26 06:01:57;;;;;;;4.17;3.10;;;;;;;20.65;100.00;96119.31;4975391;28;101936;-90
2023/08/26 06:04:24;;;;;;;3.47;3.17;;;;;;;20.67;100.00;96114.38;4992113;28;104939;-90
2023/08/26 06:06:51;;;;;;;4.43;3.27;;;;;;;20.70;100.00;96125.31;4967361;28;104384;-90
2023/08/26 06:09:18;;;;;;;3.37;3.07;;;;;;;20.72;100.00;96138.53;4956284;28;102108;-89
2023/08/26 06:11:45;;;;;;;2.90;2.60;;;;;;;20.36;100.00;96129.97;4966782;28;104902;-89
2023/08/26 06:14:14;;;;;;;2.57;2.37;;;;;;;20.25;100.00;96148.41;4975082;28;104422;-89
2023/08/26 06:16:41;;;;;;;3.27;2.30;;;;;;;20.34;100.00;96140.28;4973621;28;101919;-89
2023/08/26 06:19:08;;;;;;;4.37;3.23;;;;;;;21.09;100.00;96148.66;4994749;28;105451;-88
2023/08/26 06:21:36;;;;;;;3.67;2.90;;;;;;;21.49;100.00;96149.94;4975483;28;101967;-89
2023/08/26 06:24:04;;;;;;;2.60;2.40;;;;;;;21.60;100.00;96146.56;4975353;28;104898;-89
2023/08/26 06:26:31;;;;;;;2.43;2.20;;;;;;;20.95;100.00;96140.75;4974589;28;105121;-89
2023/08/26 06:28:58;;;;;;;2.40;2.20;;;;;;;20.70;100.00;96130.72;4991854;28;102042;-89
2023/08/26 06:31:28;;;;;;;2.53;2.33;;;;;;;20.89;100.00;96138.53;4991547;28;104858;-89
2023/08/26 06:33:56;;;;;;;2.63;2.43;;;;;;;20.74;100.00;96141.69;4974688;28;105466;-88
2023/08/26 06:36:24;;;;;;;3.20;2.20;;;;;;;20.29;100.00;96143.16;4974524;28;101948;-89
2023/08/26 06:38:52;;;;;;;3.83;2.43;;;;;;;20.33;100.00;96146.81;4974723;28;105177;-89
2023/08/26 06:41:19;;;;;;;5.37;2.83;;;;;;;20.88;100.00;96147.72;4993427;28;105489;-80
2023/08/26 06:43:46;;;;;;;4.10;2.80;;;;;;;20.74;100.00;96141.69;4975090;28;105214;-81
2023/08/26 06:46:22;;;;;;;3.33;2.60;;;;;;;20.94;100.00;96141.06;4973525;28;104735;-81
2023/08/26 06:48:51;;;;;;;4.13;2.90;;;;;;;21.07;100.00;96138.16;4972439;28;101983;-80
2023/08/26 06:51:18;;;;;;;5.10;3.23;;;;;;;20.76;100.00;96136.78;4971460;28;103920;-80
2023/08/26 06:53:44;;;;;;;4.37;3.00;;;;;;;20.90;100.00;96145.50;4973975;28;105800;-80
2023/08/26 06:56:12;;;;;;;3.07;2.80;;;;;;;21.16;100.00;96135.44;4991254;28;101908;-80
2023/08/26 06:58:39;;;;;;;3.33;3.00;;;;;;;21.36;100.00;96137.44;4990887;28;104807;-79
2023/08/26 07:01:06;;;;;;;3.33;2.80;;;;;;;21.57;100.00;96136.38;4954986;28;105143;-80
2023/08/26 07:03:33;;;;;;;2.90;2.70;;;;;;;21.50;100.00;96133.41;4958160;28;102012;-80
2023/08/26 07:06:01;;;;;;;3.23;2.80;;;;;;;21.45;100.00;96130.06;4954299;28;104083;-80
2023/08/26 07:08:28;;;;;;;3.63;2.63;;;;;;;21.33;100.00;96132.66;4963402;28;101959;-79
2023/08/26 07:10:55;;;;;;;3.53;2.37;;;;;;;21.20;100.00;96129.03;4974308;28;103811;-79
2023/08/26 07:13:21;;;;;;;3.00;2.77;;;;;;;21.38;100.00;96127.09;4968835;28;105461;-79
2023/08/26 07:15:48;;;;;;;2.97;2.77;;;;;;;21.30;100.00;96138.75;4974526;28;101981;-79
2023/08/26 07:18:15;;;;;;;2.87;2.47;;;;;;;21.43;100.00;96135.03;4990497;28;105842;-79
2023/08/26 07:20:44;;;;;;;3.30;2.80;;;;;;;21.31;100.00;96143.03;4990086;28;105137;-79
2023/08/26 07:23:13;;;;;;;3.80;2.77;;;;;;;21.45;100.00;96141.69;4972988;28;102415;-79
2023/08/26 07:25:41;;;;;;;2.83;2.53;;;;;;;21.95;100.00;96133.66;4957483;28;105386;-79
2023/08/26 07:28:11;;;;;;;2.70;2.50;;;;;;;21.94;100.00;96129.34;4954866;28;101923;-79
2023/08/26 07:30:40;;;;;;;2.43;2.30;;;;;;;21.54;100.00;96133.53;4990594;28;103905;-79
2023/08/26 07:33:07;;;;;;;2.50;2.30;;;;;;;21.70;100.00;96127.25;4956765;28;106191;-79
2023/08/26 07:35:33;;;;;;;2.60;2.50;;;;;;;21.32;100.00;96136.50;4957513;28;102003;-79
2023/08/26 07:38:00;;;;;;;3.07;2.80;;;;;;;21.36;100.00;96129.31;4973981;28;105437;-79
2023/08/26 07:40:29;;;;;;;3.33;3.03;;;;;;;21.38;100.00;96127.09;4973466;28;105301;-79
2023/08/26 07:42:56;;;;;;;3.57;2.83;;;;;;;21.61;100.00;96133.81;4954254;28;102001;-79
2023/08/26 07:45:23;;;;;;;3.60;2.60;;;;;;;21.58;100.00;96137.19;4954250;28;105031;-79
2023/08/26 07:47:50;;;;;;;2.40;2.13;;;;;;;21.36;100.00;96143.63;4957131;28;101901;-80
2023/08/26 07:50:17;;;;;;;2.87;2.60;;;;;;;21.68;100.00;96143.03;4965757;28;104583;-80
2023/08/26 07:52:44;;;;;;;2.80;2.60;;;;;;;22.07;100.00;96133.75;4972857;28;105652;-80
2023/08/26 07:55:11;;;;;;;3.00;2.70;;;;;;;21.87;100.00;96138.03;4973615;28;102336;-80
2023/08/26 07:57:41;;;;;;;2.60;2.40;;;;;;;22.07;100.00;96126.41;4990858;28;102105;-80
2023/08/26 08:00:09;;;;;;;2.40;2.30;;;;;;;22.31;100.00;96123.06;4977151;28;105194;-80
2023/08/26 08:02:42;;;;;;;2.70;2.50;;;;;;;22.04;100.00;96127.06;4953833;28;101979;-80
2023/08/26 08:05:09;;;;;;;2.70;2.50;;;;;;;22.28;100.00;96115.59;4953917;28;105338;-80
2023/08/26 08:07:36;;;;;;;3.07;2.73;;;;;;;22.55;100.00;96115.88;4956777;28;105538;-80
2023/08/26 08:10:04;;;;;;;3.00;2.43;;;;;;;22.53;100.00;96109.19;4961738;28;105219;-80
2023/08/26 08:12:33;;;;;;;4.73;2.60;;;;;;;22.89;100.00;96110.09;4972182;28;104018;-80
2023/08/26 08:15:02;;;;;;;3.20;2.90;;;;;;;23.11;100.00;96108.94;4977286;28;101920;-80
2023/08/26 08:17:29;;;;;;;4.10;2.87;;;;;;;23.00;100.00;96105.06;4958802;28;105295;-80
2023/08/26 08:19:56;;;;;;;2.63;2.43;;;;;;;23.24;100.00;96105.94;4972383;28;104271;-80
2023/08/26 08:22:34;;;;;;;3.40;2.67;;;;;;;23.48;100.00;96103.22;4973360;28;101863;-80
2023/08/26 08:25:02;;;;;;;3.70;2.60;;;;;;;22.87;100.00;96108.84;4972915;28;105227;-80
2023/08/26 08:27:29;;;;;;;2.60;2.40;;;;;;;23.19;100.00;96108.06;4989202;28;103213;-80
2023/08/26 08:29:56;;;;;;;2.77;2.57;;;;;;;22.96;100.00;96113.09;4992341;28;101818;-80
2023/08/26 08:32:25;;;;;;;2.57;2.37;;;;;;;22.91;100.00;96120.63;4953358;28;104952;-80
2023/08/26 08:34:52;;;;;;;2.77;2.47;;;;;;;23.13;100.00;96115.59;4953799;28;101803;-80
2023/08/26 08:37:19;;;;;;;4.03;2.03;;;;;;;23.50;100.00;96114.56;4953693;28;105895;-80
2023/08/26 08:39:46;;;;;;;3.37;2.47;;;;;;;24.11;100.00;96116.13;4953160;28;106051;-80
2023/08/26 08:42:16;;;;;;;2.93;2.37;;;;;;;24.28;100.00;96109.63;4971313;28;102043;-80
2023/08/26 08:44:46;;;;;;;3.57;2.10;;;;;;;24.47;100.00;96104.38;4973001;28;104172;-80
2023/08/26 08:47:13;;;;;;;2.30;2.10;;;;;;;24.81;100.00;96099.16;4970740;28;106092;-80
2023/08/26 08:49:43;;;;;;;2.87;2.13;;;;;;;24.75;100.00;96116.06;4990502;28;101844;-80
2023/08/26 08:52:11;;;;;;;2.13;1.80;;;;;;;24.76;100.00;96109.50;4975367;28;105859;-80
2023/08/26 08:54:38;;;;;;;1.90;1.80;;;;;;;24.73;100.00;96108.25;4973054;28;101916;-80
2023/08/26 08:57:06;;;;;;;2.27;2.10;;;;;;;24.79;100.00;96106.88;4964930;28;104869;-80
2023/08/26 08:59:36;;;;;;;2.10;1.90;;;;;;;24.61;100.00;96102.88;4952607;28;105532;-80
2023/08/26 09:02:05;;;;;;;2.27;2.07;;;;;;;24.83;100.00;96113.19;4953983;28;101989;-80
2023/08/26 09:04:32;;;;;;;2.27;2.17;;;;;;;24.70;100.00;96108.97;4952606;28;104871;-80
2023/08/26 09:07:03;;;;;;;2.23;2.00;;;;;;;24.78;100.00;96109.94;4952621;28;105107;-79
2023/08/26 09:09:30;;;;;;;2.23;2.00;;;;;;;25.18;100.00;96099.75;4963956;28;102432;-79
2023/08/26 09:11:58;;;;;;;2.73;2.00;;;;;;;25.39;100.00;96097.59;4972370;28;105443;-79
2023/08/26 09:14:25;;;;;;;2.43;2.23;;;;;;;24.96;100.00;96098.41;4975355;28;105494;-79
2023/08/26 09:16:55;;;;;;;2.43;2.23;;;;;;;25.04;100.00;96091.22;4972648;28;105795;-79
2023/08/26 09:19:22;;;;;;;2.47;2.17;;;;;;;25.41;100.00;96092.59;4962084;28;104043;-79
2023/08/26 09:21:49;;;;;;;1.97;1.87;;;;;;;25.54;100.00;96092.16;4952909;28;101952;-79
2023/08/26 09:24:18;;;;;;;2.70;2.10;;;;;;;25.73;100.00;96080.53;4952999;28;105623;-79
2023/08/26 09:26:59;;;;;;;2.47;2.10;;;;;;;25.87;100.00;96083.56;4952374;28;105174;-79
2023/08/26 09:29:26;;;;;;;3.23;2.27;;;;;;;25.66;100.00;96088.56;4952828;28;101908;-79
2023/08/26 09:31:54;;;;;;;2.27;2.17;;;;;;;25.85;100.00;96083.16;4967294;28;104196;-79
2023/08/26 09:34:25;;;;;;;2.30;2.10;;;;;;;26.05;100.00;96090.25;4988609;28;105061;-80
2023/08/26 09:36:52;;;;;;;2.57;2.37;;;;;;;25.81;100.00;96093.97;4975895;28;101998;-79
2023/08/26 09:39:21;;;;;;;2.40;2.20;;;;;;;25.44;100.00;96095.41;4970915;28;105316;-79
2023/08/26 09:41:48;;;;;;;2.53;2.33;;;;;;;25.66;100.00;96096.72;4989405;28;101967;-79
2023/08/26 09:44:17;;;;;;;3.33;2.57;;;;;;;25.89;100.00;96092.19;4972317;28;105268;-79
2023/08/26 09:46:44;;;;;;;2.60;2.33;;;;;;;25.23;100.00;96094.81;4989392;28;103269;-80
2023/08/26 09:49:14;;;;;;;4.07;2.43;;;;;;;25.48;100.00;96092.75;4971873;28;102121;-80
2023/08/26 09:51:46;;;;;;;2.77;2.40;;;;;;;26.22;100.00;96087.13;4955031;28;105183;-80
2023/08/26 09:54:15;;;;;;;2.40;2.20;;;;;;;26.52;100.00;96074.50;4952042;28;105444;-80
2023/08/26 09:56:45;;;;;;;3.33;2.70;;;;;;;26.45;100.00;96071.66;4956045;28;101904;-80
2023/08/26 09:59:13;;;;;;;3.13;2.93;;;;;;;25.88;100.00;96079.72;4951922;28;106643;-80
2023/08/26 10:01:40;;;;;;;3.47;2.80;;;;;;;25.89;100.00;96081.31;4979226;28;102006;-80
2023/08/26 10:04:09;;;;;;;2.57;2.37;;;;;;;25.71;100.00;96071.94;4954146;28;104245;-80
2023/08/26 10:06:40;;;;;;;3.53;2.67;;;;;;;25.32;100.00;96070.19;4951712;28;105499;-80
2023/08/26 10:09:10;;;;;;;2.97;2.50;;;;;;;25.90;100.00;96069.25;4989305;28;101868;-80
2023/08/26 10:11:39;;;;;;;3.67;2.53;;;;;;;26.07;100.00;96063.44;4982259;28;101987;-80
2023/08/26 10:14:12;;;;;;;4.73;2.80;;;;;;;26.21;100.00;96064.53;4969318;28;102882;-80
2023/08/26 10:16:39;;;;;;;2.67;2.47;;;;;;;26.76;100.00;96061.38;4973641;28;102261;-80
2023/08/26 10:19:08;;;;;;;2.73;2.53;;;;;;;27.09;100.00;96049.91;4958500;28;105100;-80
2023/08/26 10:21:36;;;;;;;2.80;2.60;;;;;;;27.32;100.00;96039.81;4956188;28;101936;-80
2023/08/26 10:24:03;;;;;;;3.27;3.07;;;;;;;27.24;100.00;96046.31;4971252;28;105696;-80
2023/08/26 10:26:32;;;;;;;3.10;2.70;;;;;;;27.07;100.00;96049.47;4971315;28;105644;-80
2023/08/26 10:29:00;;;;;;;3.80;2.70;;;;;;;26.79;100.00;96041.56;4972038;28;102077;-80
2023/08/26 10:31:34;;;;;;;4.37;3.37;;;;;;;26.73;100.00;96043.03;4972038;28;104197;-80
2023/08/26 10:34:13;;;;;;;3.43;3.13;;;;;;;26.47;100.00;96031.16;4974149;28;105816;-80
2023/08/26 10:36:41;;;;;;;3.20;3.00;;;;;;;26.88;100.00;96022.25;4990113;28;101989;-80
2023/08/26 10:39:15;;;;;;;3.33;3.10;;;;;;;26.51;100.00;96012.94;4992894;28;102661;-80
2023/08/26 10:42:13;;;;;;;3.17;2.77;;;;;;;26.52;100.00;96004.41;4994446;28;105217;-80
2023/08/26 10:44:41;;;;;;;3.80;2.83;;;;;;;27.20;100.00;95996.31;4972975;28;105312;-80
2023/08/26 10:47:10;;;;;;;3.77;2.97;;;;;;;27.46;100.00;95988.16;4972250;28;103213;-80
2023/08/26 10:49:37;;;;;;;3.20;2.90;;;;;;;27.93;100.00;95985.72;4971024;28;101994;-80
2023/08/26 10:52:17;;;;;;;4.10;2.97;;;;;;;28.26;100.00;95983.81;4971337;28;105406;-80
2023/08/26 10:54:44;;;;;;;4.23;2.80;;;;;;;28.39;100.00;95987.13;4972178;28;105297;-80
2023/08/26 10:57:12;;;;;;;3.30;2.97;;;;;;;28.54;100.00;95973.22;4973970;28;102096;-80
2023/08/26 10:59:40;;;;;;;3.07;2.77;;;;;;;28.56;100.00;95976.34;4990783;28;105320;-80
2023/08/26 11:02:11;;;;;;;3.20;2.90;;;;;;;28.85;100.00;95969.22;4973082;28;105604;-80
2023/08/26 11:04:42;;;;;;;3.53;3.23;;;;;;;28.80;100.00;95961.34;4987272;28;101858;-80
2023/08/26 11:07:15;;;;;;;3.23;2.93;;;;;;;28.97;100.00;95947.06;4955300;28;105203;-79
2023/08/26 11:09:42;;;;;;;3.38;2.92;;;;;;;29.04;100.00;95942.44;4954935;28;101915;-79
2023/08/26 11:12:24;;;;;;;4.28;2.85;;;;;;;28.98;100.00;95938.50;4955055;28;103995;-79
2023/08/26 11:14:50;;;;;;;3.38;3.08;;;;;;;28.95;100.00;95932.94;4961844;28;105752;-79
2023/08/26 11:17:20;;;;;;;3.30;3.00;;;;;;;27.80;100.00;95925.03;4990440;28;101938;-79
2023/08/26 11:19:47;;;;;;;3.00;2.70;;;;;;;27.92;100.00;95916.63;4974321;28;105385;-79
2023/08/26 11:22:14;;;;;;;2.90;2.70;;;;;;;28.68;100.00;95902.22;4973838;28;105503;-79